CSAV Loncomilla — VRFB3 — position and weather

sailwx.info

Track history (hours):
 
Tides and Currents Weather Stations Pressure Air Temp Water Temp Dewpoint Dewpoint Depression Visibility Wind Speed Wind Dir Waves Ship Positions

CSAV Loncomilla

Last reported at 2017-Jan-22 13:33 UTC. Time now 2017-Jan-22 14:24 UTC.
Position N 50°47' W 001°07'.

Length 12 m; draft 0.9 m.

Type: . MMSI: 235008024.

Date/timePositionNaut miles runAvg speedWind from/ knotsBaromVisibWave heightAir tempDewpointWater temp
2017-Jan-22 13:33N 50°47' W 001°07'1 0.8
2017-Jan-22 12:33N 50°48' W 001°07'1 0.9
2017-Jan-22 11:34N 50°47' W 001°07'0 0.2
2017-Jan-22 10:33N 50°47' W 001°07'1 0.8
2017-Jan-22 09:10N 50°48' W 001°07'0 0.0
2017-Jan-22 08:32N 50°48' W 001°07'0 0.0
2017-Jan-22 07:23N 50°48' W 001°07'0 0.0
2017-Jan-22 06:11N 50°48' W 001°07'0 0.0
2017-Jan-22 05:33N 50°48' W 001°07'0 0.0
2017-Jan-22 04:33N 50°48' W 001°07'0 0.1
2017-Jan-22 03:33N 50°48' W 001°07'0 0.1
2017-Jan-22 02:23N 50°48' W 001°07'0 0.0
2017-Jan-22 00:20N 50°48' W 001°07'1 1.1
2017-Jan-21 23:24N 50°49' W 001°06'1 0.5
2017-Jan-21 21:32N 50°48' W 001°07'0 0.1
2017-Jan-21 18:29N 50°48' W 001°07'0 0.4
2017-Jan-21 17:23N 50°48' W 001°07'0 0.5
2017-Jan-21 16:23N 50°48' W 001°07'0 0.0
2017-Jan-21 15:20N 50°48' W 001°07'0 0.0
2017-Jan-21 14:21N 50°48' W 001°07'1 0.7
2017-Jan-21 12:33N 50°47' W 001°07'1 0.9
2017-Jan-21 11:34N 50°48' W 001°07'0 0.2
2017-Jan-21 09:27N 50°48' W 001°07'0 0.4
2017-Jan-21 08:33N 50°48' W 001°07'0 0.2
2017-Jan-21 07:11N 50°48' W 001°07'0 0.7
2017-Jan-21 06:32N 50°48' W 001°07'0 0.0
2017-Jan-21 05:32N 50°48' W 001°07'0 0.5
2017-Jan-21 04:33N 50°48' W 001°07'0 0.4
2017-Jan-21 03:33N 50°49' W 001°06'0 0.4
2017-Jan-21 02:29N 50°48' W 001°07'0 0.0
2017-Jan-21 01:19N 50°48' W 001°07'0 0.0
2017-Jan-21 00:17N 50°48' W 001°07'0 0.0
2017-Jan-20 23:14N 50°48' W 001°07'0 0.0
2017-Jan-20 22:32N 50°48' W 001°07'0 0.0
2017-Jan-20 21:32N 50°48' W 001°07'0 0.0
2017-Jan-20 19:29N 50°48' W 001°07'1 1.1
2017-Jan-20 18:33N 50°49' W 001°06'1 1.3
2017-Jan-20 17:29N 50°48' W 001°07'0 0.4
2017-Jan-20 16:28N 50°48' W 001°07'1 1.0
2017-Jan-20 15:30N 50°49' W 001°06'1 1.0
2017-Jan-20 14:29N 50°48' W 001°07'0 0.0
2017-Jan-20 13:30N 50°48' W 001°07'0 0.2
2017-Jan-20 12:32N 50°48' W 001°07'1 1.0
2017-Jan-20 11:33N 50°49' W 001°06'1 1.3
2017-Jan-20 10:32N 50°48' W 001°07'0 0.3
2017-Jan-20 09:30N 50°48' W 001°07'0 0.0
2017-Jan-20 08:30N 50°48' W 001°07'0 0.0
2017-Jan-20 07:27N 50°48' W 001°07'0 0.5
2017-Jan-20 06:32N 50°48' W 001°07'0 0.1
2017-Jan-20 05:33N 50°48' W 001°07'0 0.2
2017-Jan-20 04:31N 50°48' W 001°07'0 0.4
2017-Jan-20 03:34N 50°48' W 001°07'0 0.4
2017-Jan-20 02:22N 50°48' W 001°07'0 0.1
2017-Jan-20 00:33N 50°48' W 001°07'0 0.2
2017-Jan-19 23:31N 50°48' W 001°07'0 0.2
2017-Jan-19 22:32N 50°48' W 001°07'0 0.0
2017-Jan-19 21:34N 50°48' W 001°07'0 0.0
2017-Jan-19 20:33N 50°48' W 001°07'0 0.3
2017-Jan-19 19:33N 50°48' W 001°07'0 0.4
2017-Jan-19 18:33N 50°48' W 001°07'1 0.5
2017-Jan-19 17:29N 50°48' W 001°07'0 0.4
2017-Jan-19 16:25N 50°48' W 001°07'0 0.4
2017-Jan-19 15:31N 50°48' W 001°07'0 0.3
2017-Jan-19 14:14N 50°48' W 001°07'0 0.7
2017-Jan-19 13:31N 50°48' W 001°07'1 1.3
2017-Jan-19 12:33N 50°47' W 001°06'2 1.8
2017-Jan-19 11:31N 50°49' W 001°06'1 0.8
2017-Jan-19 10:18N 50°48' W 001°07'0 0.5
2017-Jan-19 09:33N 50°48' W 001°06'0 0.3
2017-Jan-19 08:13N 50°48' W 001°07'0 0.0
2017-Jan-19 07:28N 50°48' W 001°07'0 0.4
2017-Jan-19 06:26N 50°48' W 001°07'0 0.0
2017-Jan-19 05:32N 50°48' W 001°07'0 0.3
2017-Jan-19 04:32N 50°48' W 001°07'1067210911.0
2017-Jan-19 03:33S 22°22' E 166°08'106713841577.4
2017-Jan-19 03:33N 50°49' W 001°06'1067610693.6
2017-Jan-19 02:33S 22°17' E 166°17'10676173127.0
2017-Jan-19 02:30N 50°48' W 001°07'0 0.0
2017-Jan-19 01:33N 50°48' W 001°07'10683380797.8
2017-Jan-19 01:31S 22°16' E 166°26'0 0.0
2017-Jan-19 00:31S 22°16' E 166°26'1068347896.1
2017-Jan-19 00:18N 50°48' W 001°07'0 0.0
2017-Jan-18 23:31N 50°48' W 001°07'10683230302.1
2017-Jan-18 23:28S 22°16' E 166°26'0 0.0
2017-Jan-18 22:31S 22°16' E 166°26'10683125278.2
2017-Jan-18 22:26N 50°48' W 001°07'0 0.0
2017-Jan-18 21:31N 50°48' W 001°07'10683116546.6
2017-Jan-18 21:25S 22°16' E 166°26'0 0.0
2017-Jan-18 20:31S 22°16' E 166°26'10683182276.7
2017-Jan-18 20:28N 50°48' W 001°07'0 0.0
2017-Jan-18 19:33N 50°48' W 001°07'10683118705.4
2017-Jan-18 19:28S 22°16' E 166°26'1068211590.4
2017-Jan-18 18:33N 50°49' W 001°06'10682377028.3
2017-Jan-18 18:31S 22°16' E 166°26'0 0.0
2017-Jan-18 17:31S 22°16' E 166°26'10684276708.9
2017-Jan-18 17:29N 50°48' W 001°07'1068411113.1
2017-Jan-18 16:31S 22°16' E 166°26'10683312686.1
2017-Jan-18 16:29N 50°48' W 001°07'0 0.4
2017-Jan-18 15:33N 50°48' W 001°06'10683263418.9
2017-Jan-18 15:31S 22°16' E 166°26'0 0.0
2017-Jan-18 14:31S 22°16' E 166°26'1068331016.5
2017-Jan-18 14:10N 50°48' W 001°07'0 0.6
2017-Jan-18 13:32N 50°49' W 001°07'106831098866.7
2017-Jan-18 13:31S 22°16' E 166°26'1068410948.4
2017-Jan-18 12:33N 50°48' W 001°07'10684442089.4
2017-Jan-18 12:31S 22°16' E 166°26'0 0.0
2017-Jan-18 11:31S 22°16' E 166°26'10683102288.4
2017-Jan-18 11:25N 50°48' W 001°07'1068311929.4
2017-Jan-18 10:31S 22°16' E 166°26'10683209023.9
2017-Jan-18 10:28N 50°48' W 001°07'1068311258.9
2017-Jan-18 09:31S 22°16' E 166°26'1068328983.0
2017-Jan-18 09:09N 50°48' W 001°07'0 0.1
2017-Jan-18 08:33N 50°48' W 001°07'10684119815.3
2017-Jan-18 08:28S 22°16' E 166°26'0 0.0
2017-Jan-18 07:31S 22°16' E 166°26'106849615174.9
2017-Jan-18 07:31N 50°48' W 001°07'1068410695.4
2017-Jan-18 06:31S 22°16' E 166°26'10684127359.4
2017-Jan-18 06:26N 50°48' W 001°07'0 0.0
2017-Jan-18 05:32N 50°48' W 001°07'10684164369.9
2017-Jan-18 05:28S 22°16' E 166°26'1068411522.1
2017-Jan-18 04:32N 50°48' W 001°07'10684469032.0
2017-Jan-18 04:31S 22°16' E 166°26'1068311016.9
2017-Jan-18 03:33N 50°49' W 001°07'10683352845.1
2017-Jan-18 03:31S 22°16' E 166°26'0 0.0
2017-Jan-18 02:33S 22°16' E 166°26'1068449691.0
2017-Jan-18 02:20N 50°48' W 001°07'1068413609.6
2017-Jan-18 01:33S 22°16' E 166°26'10684168687.6
2017-Jan-18 01:29N 50°48' W 001°07'1068011480.8
2017-Jan-18 00:33S 22°15' E 166°23'10680152575.4
2017-Jan-18 00:29N 50°48' W 001°07'1067811342.9
2017-Jan-17 23:33S 22°23' E 166°14'10678103894.1
2017-Jan-17 23:27N 50°48' W 001°07'1068311848.1
2017-Jan-17 22:32S 22°33' E 166°11'10683221028.8
2017-Jan-17 22:30N 50°48' W 001°07'0 0.0
2017-Jan-17 21:34N 50°48' W 001°07'0 0.3
2017-Jan-17 20:32N 50°48' W 001°07'0 0.3
2017-Jan-17 19:32N 50°48' W 001°07'1 1.0
2017-Jan-17 18:32N 50°49' W 001°06'1 1.5
2017-Jan-17 17:33N 50°48' W 001°07'1 0.8
2017-Jan-17 16:33N 50°48' W 001°06'0 0.4
2017-Jan-17 15:33N 50°48' W 001°07'0 0.0
2017-Jan-17 14:32N 50°48' W 001°07'0 0.0
2017-Jan-17 13:32N 50°48' W 001°07'0 0.4
2017-Jan-17 12:33N 50°48' W 001°06'0 0.4
2017-Jan-17 11:34N 50°48' W 001°07'0 0.1
2017-Jan-17 10:33N 50°48' W 001°07'0 0.2
2017-Jan-17 09:33N 50°48' W 001°07'0 0.1
2017-Jan-17 08:31N 50°48' W 001°07'0 0.3
2017-Jan-17 07:31N 50°48' W 001°06'0 0.4
2017-Jan-17 06:33N 50°48' W 001°07'0 0.4
2017-Jan-17 05:26N 50°48' W 001°07'0 0.0
2017-Jan-17 04:32N 50°48' W 001°07'1 0.9
2017-Jan-17 03:33N 50°49' W 001°06'0 0.2
2017-Jan-17 02:33N 50°48' W 001°06'0 0.0
2017-Jan-17 01:33N 50°48' W 001°06'0 0.0
2017-Jan-17 00:33N 50°48' W 001°06'0 0.0
2017-Jan-16 23:33N 50°48' W 001°06'0 0.0
2017-Jan-16 22:33N 50°48' W 001°06'0 0.0
2017-Jan-16 21:33N 50°48' W 001°06'0 0.0
2017-Jan-16 20:33N 50°48' W 001°06'0 0.0
2017-Jan-16 19:33N 50°48' W 001°06'0 0.4
2017-Jan-16 18:33N 50°49' W 001°06'1 1.1
2017-Jan-16 17:32N 50°48' W 001°07'1 0.8
2017-Jan-16 16:33N 50°48' W 001°06'1 0.7
2017-Jan-16 15:32N 50°48' W 001°07'1 0.8
2017-Jan-16 14:32N 50°48' W 001°06'0 0.0
2017-Jan-16 13:32N 50°48' W 001°06'0 0.0
2017-Jan-16 12:31N 50°48' W 001°06'0 0.4
2017-Jan-16 11:33N 50°49' W 001°06'0 0.4
2017-Jan-16 10:33N 50°48' W 001°06'1 0.6
2017-Jan-16 09:33N 50°48' W 001°07'0 0.0
2017-Jan-16 08:33N 50°48' W 001°07'1 0.6
2017-Jan-16 07:33N 50°48' W 001°06'0 0.1
2017-Jan-16 06:32N 50°48' W 001°06'1 0.8
2017-Jan-16 05:32N 50°48' W 001°07'0 0.0
2017-Jan-16 04:32N 50°48' W 001°07'1 0.8
2017-Jan-16 03:33N 50°48' W 001°06'0 0.0
2017-Jan-16 02:33N 50°48' W 001°06'0 0.0
2017-Jan-16 01:33N 50°48' W 001°06'0 0.0
2017-Jan-16 00:33N 50°48' W 001°06'11669155586.5
2017-Jan-16 00:28S 35°13' E 174°57'1166912626.5
2017-Jan-15 23:33N 50°48' W 001°06'0 0.0
2017-Jan-15 22:33N 50°48' W 001°06'0 0.0
2017-Jan-15 21:33N 50°48' W 001°06'0 0.0
2017-Jan-15 20:34N 50°48' W 001°06'0 0.4
2017-Jan-15 19:33N 50°49' W 001°06'1 1.1
2017-Jan-15 18:33N 50°48' W 001°07'0 0.0
2017-Jan-15 17:33N 50°48' W 001°07'1 0.8
2017-Jan-15 16:33N 50°48' W 001°06'1182025696.2
2017-Jan-15 16:06S 37°31' E 176°11'611.8
2017-Jan-15 15:34S 37°37' E 176°10'11824247472.6
2017-Jan-15 15:31N 50°48' W 001°07'1182612198.3
2017-Jan-15 14:32S 37°40' E 176°11'11825886887.1
2017-Jan-15 14:32N 50°48' W 001°06'0 0.5
2017-Jan-15 13:33N 50°49' W 001°06'11825905730.2
2017-Jan-15 13:32S 37°40' E 176°11'0 0.0
2017-Jan-15 12:32S 37°40' E 176°11'118253274660.3
2017-Jan-15 12:32N 50°48' W 001°06'1182511874.6
2017-Jan-15 11:32S 37°40' E 176°11'118252504151.9
2017-Jan-15 11:32N 50°48' W 001°06'0 0.5
2017-Jan-15 10:33N 50°48' W 001°07'11826626064.0
2017-Jan-15 10:32S 37°40' E 176°11'0 0.0
2017-Jan-15 09:32S 37°40' E 176°11'11825430005.9
2017-Jan-15 09:31N 50°48' W 001°06'1182512156.1
2017-Jan-15 08:32S 37°40' E 176°11'11825425705.8
2017-Jan-15 08:31N 50°48' W 001°06'1182512170.0
2017-Jan-15 07:32S 37°40' E 176°11'11825417358.6
2017-Jan-15 07:31N 50°48' W 001°06'0 0.0
2017-Jan-15 06:30N 50°48' W 001°06'118251702823.4
2017-Jan-15 06:29S 37°40' E 176°11'1182612485.0
2017-Jan-15 05:33N 50°48' W 001°07'118262365216.7
2017-Jan-15 05:32S 37°40' E 176°11'1182611892.2
2017-Jan-15 04:33N 50°48' W 001°07'118262240730.9
2017-Jan-15 04:32S 37°40' E 176°11'1182512012.1
2017-Jan-15 03:33N 50°49' W 001°06'11825733983.1
2017-Jan-15 03:32S 37°40' E 176°11'0 0.0
2017-Jan-15 02:32S 37°40' E 176°11'11825448111.6
2017-Jan-15 02:31N 50°48' W 001°06'1182512152.6
2017-Jan-15 01:32S 37°40' E 176°11'11825413306.7
2017-Jan-15 01:31N 50°48' W 001°06'1182512173.5
2017-Jan-15 00:32S 37°40' E 176°11'11825434395.7
2017-Jan-15 00:31N 50°48' W 001°06'1182512152.6
2017-Jan-14 23:32S 37°40' E 176°11'11825421491.0
2017-Jan-14 23:31N 50°48' W 001°06'1182512170.0
2017-Jan-14 22:32S 37°40' E 176°11'11825417358.7
2017-Jan-14 22:31N 50°48' W 001°06'1182412409.7
2017-Jan-14 21:33S 37°35' E 176°12'11824248920.0
2017-Jan-14 21:31N 50°48' W 001°06'1183012409.4
2017-Jan-14 20:33S 37°30' E 176°23'11830255023.9
2017-Jan-14 20:31N 50°48' W 001°06'0 0.2
2017-Jan-14 19:33N 50°48' W 001°07'1 0.7
2017-Jan-14 18:32N 50°48' W 001°07'0 0.1
2017-Jan-14 17:34N 50°48' W 001°07'1 0.7
2017-Jan-14 16:33N 50°48' W 001°06'3 2.8
2017-Jan-14 15:33N 50°46' W 001°05'3 3.0
2017-Jan-14 14:31N 50°49' W 001°07'0 0.5
2017-Jan-14 13:33N 50°49' W 001°06'0 0.4
2017-Jan-14 12:33N 50°49' W 001°06'1 0.6
2017-Jan-14 11:32N 50°48' W 001°06'0 0.0
2017-Jan-14 10:32N 50°48' W 001°06'0 0.0
2017-Jan-14 09:32N 50°48' W 001°06'0 0.0
2017-Jan-14 08:32N 50°48' W 001°06'0 0.0
2017-Jan-14 07:32N 50°48' W 001°06'0 0.0
2017-Jan-14 06:33N 50°48' W 001°06'1 0.8
2017-Jan-14 05:33N 50°48' W 001°07'0 0.0
2017-Jan-14 04:33N 50°48' W 001°07'1 1.4
2017-Jan-14 03:33N 50°49' W 001°06'1 0.2
2017-Jan-13 23:33N 50°48' W 001°06'0 0.0
2017-Jan-13 22:33N 50°48' W 001°06'0 0.0
2017-Jan-13 21:33N 50°48' W 001°06'0 0.0
2017-Jan-13 20:30N 50°48' W 001°06'0 0.0
2017-Jan-13 19:33N 50°48' W 001°06'0 0.2
2017-Jan-13 18:34N 50°49' W 001°06'1 0.8
2017-Jan-13 17:33N 50°48' W 001°07'1 0.8
2017-Jan-13 16:32N 50°48' W 001°06'0 0.0
2017-Jan-13 15:32N 50°48' W 001°06'0 0.0
2017-Jan-13 14:32N 50°48' W 001°06'0 0.0
2017-Jan-13 13:33N 50°48' W 001°06'0 0.5
2017-Jan-13 12:33N 50°49' W 001°06'0 0.5
2017-Jan-13 11:33N 50°48' W 001°06'0 0.0
2017-Jan-13 10:33N 50°48' W 001°06'0 0.0
2017-Jan-13 09:33N 50°48' W 001°06'0 0.0
2017-Jan-13 08:32N 50°48' W 001°06'0 0.0
2017-Jan-13 07:33N 50°48' W 001°06'1 0.5
2017-Jan-13 06:33N 50°48' W 001°07'0 0.3
2017-Jan-13 05:31N 50°48' W 001°07'0 0.0
2017-Jan-13 04:31N 50°48' W 001°07'1 1.2
2017-Jan-13 03:33N 50°49' W 001°06'1 1.1
2017-Jan-13 02:32N 50°48' W 001°07'0 0.0
2017-Jan-13 01:32N 50°48' W 001°07'0 0.0
2017-Jan-13 00:32N 50°48' W 001°07'0 0.0
2017-Jan-12 23:32N 50°48' W 001°07'0 0.0
2017-Jan-12 22:32N 50°48' W 001°07'0 0.0
2017-Jan-12 21:32N 50°48' W 001°07'0 0.0
2017-Jan-12 20:32N 50°48' W 001°07'0 0.1
2017-Jan-12 19:33N 50°48' W 001°07'0 0.1
2017-Jan-12 18:33N 50°48' W 001°07'0 0.0
2017-Jan-12 17:33N 50°48' W 001°07'1 0.6
2017-Jan-12 16:33N 50°48' W 001°07'1 0.8
2017-Jan-12 15:31N 50°49' W 001°06'0 0.0
2017-Jan-12 14:31N 50°49' W 001°06'1 1.0
2017-Jan-12 13:33N 50°48' W 001°07'  
Track history (hours):
 
Tides and Currents Weather Stations Pressure Air Temp Water Temp Dewpoint Dewpoint Depression Visibility Wind Speed Wind Dir Waves Ship Positions

CSAV Loncomilla

Last reported at 2017-Jan-22 13:33 UTC. Time now 2017-Jan-22 14:24 UTC.
Position N 50°47' W 001°07'.

Length 12 m; draft 0.9 m.

Type: . MMSI: 235008024.

Date/timePositionNaut miles runAvg speedWind from/ knotsBaromVisibWave heightAir tempDewpointWater temp
2017-Jan-22 13:33N 50°47' W 001°07'1 0.8
2017-Jan-22 12:33N 50°48' W 001°07'1 0.9
2017-Jan-22 11:34N 50°47' W 001°07'0 0.2
2017-Jan-22 10:33N 50°47' W 001°07'1 0.8
2017-Jan-22 09:10N 50°48' W 001°07'0 0.0
2017-Jan-22 08:32N 50°48' W 001°07'0 0.0
2017-Jan-22 07:23N 50°48' W 001°07'0 0.0
2017-Jan-22 06:11N 50°48' W 001°07'0 0.0
2017-Jan-22 05:33N 50°48' W 001°07'0 0.0
2017-Jan-22 04:33N 50°48' W 001°07'0 0.1
2017-Jan-22 03:33N 50°48' W 001°07'0 0.1
2017-Jan-22 02:23N 50°48' W 001°07'0 0.0
2017-Jan-22 00:20N 50°48' W 001°07'1 1.1
2017-Jan-21 23:24N 50°49' W 001°06'1 0.5
2017-Jan-21 21:32N 50°48' W 001°07'0 0.1
2017-Jan-21 18:29N 50°48' W 001°07'0 0.4
2017-Jan-21 17:23N 50°48' W 001°07'0 0.5
2017-Jan-21 16:23N 50°48' W 001°07'0 0.0
2017-Jan-21 15:20N 50°48' W 001°07'0 0.0
2017-Jan-21 14:21N 50°48' W 001°07'1 0.7
2017-Jan-21 12:33N 50°47' W 001°07'1 0.9
2017-Jan-21 11:34N 50°48' W 001°07'0 0.2
2017-Jan-21 09:27N 50°48' W 001°07'0 0.4
2017-Jan-21 08:33N 50°48' W 001°07'0 0.2
2017-Jan-21 07:11N 50°48' W 001°07'0 0.7
2017-Jan-21 06:32N 50°48' W 001°07'0 0.0
2017-Jan-21 05:32N 50°48' W 001°07'0 0.5
2017-Jan-21 04:33N 50°48' W 001°07'0 0.4
2017-Jan-21 03:33N 50°49' W 001°06'0 0.4
2017-Jan-21 02:29N 50°48' W 001°07'0 0.0
2017-Jan-21 01:19N 50°48' W 001°07'0 0.0
2017-Jan-21 00:17N 50°48' W 001°07'0 0.0
2017-Jan-20 23:14N 50°48' W 001°07'0 0.0
2017-Jan-20 22:32N 50°48' W 001°07'0 0.0
2017-Jan-20 21:32N 50°48' W 001°07'0 0.0
2017-Jan-20 19:29N 50°48' W 001°07'1 1.1
2017-Jan-20 18:33N 50°49' W 001°06'1 1.3
2017-Jan-20 17:29N 50°48' W 001°07'0 0.4
2017-Jan-20 16:28N 50°48' W 001°07'1 1.0
2017-Jan-20 15:30N 50°49' W 001°06'1 1.0
2017-Jan-20 14:29N 50°48' W 001°07'0 0.0
2017-Jan-20 13:30N 50°48' W 001°07'0 0.2
2017-Jan-20 12:32N 50°48' W 001°07'1 1.0
2017-Jan-20 11:33N 50°49' W 001°06'1 1.3
2017-Jan-20 10:32N 50°48' W 001°07'0 0.3
2017-Jan-20 09:30N 50°48' W 001°07'0 0.0
2017-Jan-20 08:30N 50°48' W 001°07'0 0.0
2017-Jan-20 07:27N 50°48' W 001°07'0 0.5
2017-Jan-20 06:32N 50°48' W 001°07'0 0.1
2017-Jan-20 05:33N 50°48' W 001°07'0 0.2
2017-Jan-20 04:31N 50°48' W 001°07'0 0.4
2017-Jan-20 03:34N 50°48' W 001°07'0 0.4
2017-Jan-20 02:22N 50°48' W 001°07'0 0.1
2017-Jan-20 00:33N 50°48' W 001°07'0 0.2
2017-Jan-19 23:31N 50°48' W 001°07'0 0.2
2017-Jan-19 22:32N 50°48' W 001°07'0 0.0
2017-Jan-19 21:34N 50°48' W 001°07'0 0.0
2017-Jan-19 20:33N 50°48' W 001°07'0 0.3
2017-Jan-19 19:33N 50°48' W 001°07'0 0.4
2017-Jan-19 18:33N 50°48' W 001°07'1 0.5
2017-Jan-19 17:29N 50°48' W 001°07'0 0.4
2017-Jan-19 16:25N 50°48' W 001°07'0 0.4
2017-Jan-19 15:31N 50°48' W 001°07'0 0.3
2017-Jan-19 14:14N 50°48' W 001°07'0 0.7
2017-Jan-19 13:31N 50°48' W 001°07'1 1.3
2017-Jan-19 12:33N 50°47' W 001°06'2 1.8
2017-Jan-19 11:31N 50°49' W 001°06'1 0.8
2017-Jan-19 10:18N 50°48' W 001°07'0 0.5
2017-Jan-19 09:33N 50°48' W 001°06'0 0.3
2017-Jan-19 08:13N 50°48' W 001°07'0 0.0
2017-Jan-19 07:28N 50°48' W 001°07'0 0.4
2017-Jan-19 06:26N 50°48' W 001°07'0 0.0
2017-Jan-19 05:32N 50°48' W 001°07'0 0.3
2017-Jan-19 04:32N 50°48' W 001°07'1067210911.0
2017-Jan-19 03:33S 22°22' E 166°08'106713841577.4
2017-Jan-19 03:33N 50°49' W 001°06'1067610693.6
2017-Jan-19 02:33S 22°17' E 166°17'10676173127.0
2017-Jan-19 02:30N 50°48' W 001°07'0 0.0
2017-Jan-19 01:33N 50°48' W 001°07'10683380797.8
2017-Jan-19 01:31S 22°16' E 166°26'0 0.0
2017-Jan-19 00:31S 22°16' E 166°26'1068347896.1
2017-Jan-19 00:18N 50°48' W 001°07'0 0.0
2017-Jan-18 23:31N 50°48' W 001°07'10683230302.1
2017-Jan-18 23:28S 22°16' E 166°26'0 0.0
2017-Jan-18 22:31S 22°16' E 166°26'10683125278.2
2017-Jan-18 22:26N 50°48' W 001°07'0 0.0
2017-Jan-18 21:31N 50°48' W 001°07'10683116546.6
2017-Jan-18 21:25S 22°16' E 166°26'0 0.0
2017-Jan-18 20:31S 22°16' E 166°26'10683182276.7
2017-Jan-18 20:28N 50°48' W 001°07'0 0.0
2017-Jan-18 19:33N 50°48' W 001°07'10683118705.4
2017-Jan-18 19:28S 22°16' E 166°26'1068211590.4
2017-Jan-18 18:33N 50°49' W 001°06'10682377028.3
2017-Jan-18 18:31S 22°16' E 166°26'0 0.0
2017-Jan-18 17:31S 22°16' E 166°26'10684276708.9
2017-Jan-18 17:29N 50°48' W 001°07'1068411113.1
2017-Jan-18 16:31S 22°16' E 166°26'10683312686.1
2017-Jan-18 16:29N 50°48' W 001°07'0 0.4
2017-Jan-18 15:33N 50°48' W 001°06'10683263418.9
2017-Jan-18 15:31S 22°16' E 166°26'0 0.0
2017-Jan-18 14:31S 22°16' E 166°26'1068331016.5
2017-Jan-18 14:10N 50°48' W 001°07'0 0.6
2017-Jan-18 13:32N 50°49' W 001°07'106831098866.7
2017-Jan-18 13:31S 22°16' E 166°26'1068410948.4
2017-Jan-18 12:33N 50°48' W 001°07'10684442089.4
2017-Jan-18 12:31S 22°16' E 166°26'0 0.0
2017-Jan-18 11:31S 22°16' E 166°26'10683102288.4
2017-Jan-18 11:25N 50°48' W 001°07'1068311929.4
2017-Jan-18 10:31S 22°16' E 166°26'10683209023.9
2017-Jan-18 10:28N 50°48' W 001°07'1068311258.9
2017-Jan-18 09:31S 22°16' E 166°26'1068328983.0
2017-Jan-18 09:09N 50°48' W 001°07'0 0.1
2017-Jan-18 08:33N 50°48' W 001°07'10684119815.3
2017-Jan-18 08:28S 22°16' E 166°26'0 0.0
2017-Jan-18 07:31S 22°16' E 166°26'106849615174.9
2017-Jan-18 07:31N 50°48' W 001°07'1068410695.4
2017-Jan-18 06:31S 22°16' E 166°26'10684127359.4
2017-Jan-18 06:26N 50°48' W 001°07'0 0.0
2017-Jan-18 05:32N 50°48' W 001°07'10684164369.9
2017-Jan-18 05:28S 22°16' E 166°26'1068411522.1
2017-Jan-18 04:32N 50°48' W 001°07'10684469032.0
2017-Jan-18 04:31S 22°16' E 166°26'1068311016.9
2017-Jan-18 03:33N 50°49' W 001°07'10683352845.1
2017-Jan-18 03:31S 22°16' E 166°26'0 0.0
2017-Jan-18 02:33S 22°16' E 166°26'1068449691.0
2017-Jan-18 02:20N 50°48' W 001°07'1068413609.6
2017-Jan-18 01:33S 22°16' E 166°26'10684168687.6
2017-Jan-18 01:29N 50°48' W 001°07'1068011480.8
2017-Jan-18 00:33S 22°15' E 166°23'10680152575.4
2017-Jan-18 00:29N 50°48' W 001°07'1067811342.9
2017-Jan-17 23:33S 22°23' E 166°14'10678103894.1
2017-Jan-17 23:27N 50°48' W 001°07'1068311848.1
2017-Jan-17 22:32S 22°33' E 166°11'10683221028.8
2017-Jan-17 22:30N 50°48' W 001°07'0 0.0
2017-Jan-17 21:34N 50°48' W 001°07'0 0.3
2017-Jan-17 20:32N 50°48' W 001°07'0 0.3
2017-Jan-17 19:32N 50°48' W 001°07'1 1.0
2017-Jan-17 18:32N 50°49' W 001°06'1 1.5
2017-Jan-17 17:33N 50°48' W 001°07'1 0.8
2017-Jan-17 16:33N 50°48' W 001°06'0 0.4
2017-Jan-17 15:33N 50°48' W 001°07'0 0.0
2017-Jan-17 14:32N 50°48' W 001°07'0 0.0
2017-Jan-17 13:32N 50°48' W 001°07'0 0.4
2017-Jan-17 12:33N 50°48' W 001°06'0 0.4
2017-Jan-17 11:34N 50°48' W 001°07'0 0.1
2017-Jan-17 10:33N 50°48' W 001°07'0 0.2
2017-Jan-17 09:33N 50°48' W 001°07'0 0.1
2017-Jan-17 08:31N 50°48' W 001°07'0 0.3
2017-Jan-17 07:31N 50°48' W 001°06'0 0.4
2017-Jan-17 06:33N 50°48' W 001°07'0 0.4
2017-Jan-17 05:26N 50°48' W 001°07'0 0.0
2017-Jan-17 04:32N 50°48' W 001°07'1 0.9
2017-Jan-17 03:33N 50°49' W 001°06'0 0.2
2017-Jan-17 02:33N 50°48' W 001°06'0 0.0
2017-Jan-17 01:33N 50°48' W 001°06'0 0.0
2017-Jan-17 00:33N 50°48' W 001°06'0 0.0
2017-Jan-16 23:33N 50°48' W 001°06'0 0.0
2017-Jan-16 22:33N 50°48' W 001°06'0 0.0
2017-Jan-16 21:33N 50°48' W 001°06'0 0.0
2017-Jan-16 20:33N 50°48' W 001°06'0 0.0
2017-Jan-16 19:33N 50°48' W 001°06'0 0.4
2017-Jan-16 18:33N 50°49' W 001°06'1 1.1
2017-Jan-16 17:32N 50°48' W 001°07'1 0.8
2017-Jan-16 16:33N 50°48' W 001°06'1 0.7
2017-Jan-16 15:32N 50°48' W 001°07'1 0.8
2017-Jan-16 14:32N 50°48' W 001°06'0 0.0
2017-Jan-16 13:32N 50°48' W 001°06'0 0.0
2017-Jan-16 12:31N 50°48' W 001°06'0 0.4
2017-Jan-16 11:33N 50°49' W 001°06'0 0.4
2017-Jan-16 10:33N 50°48' W 001°06'1 0.6
2017-Jan-16 09:33N 50°48' W 001°07'0 0.0
2017-Jan-16 08:33N 50°48' W 001°07'1 0.6
2017-Jan-16 07:33N 50°48' W 001°06'0 0.1
2017-Jan-16 06:32N 50°48' W 001°06'1 0.8
2017-Jan-16 05:32N 50°48' W 001°07'0 0.0
2017-Jan-16 04:32N 50°48' W 001°07'1 0.8
2017-Jan-16 03:33N 50°48' W 001°06'0 0.0
2017-Jan-16 02:33N 50°48' W 001°06'0 0.0
2017-Jan-16 01:33N 50°48' W 001°06'0 0.0
2017-Jan-16 00:33N 50°48' W 001°06'11669155586.5
2017-Jan-16 00:28S 35°13' E 174°57'1166912626.5
2017-Jan-15 23:33N 50°48' W 001°06'0 0.0
2017-Jan-15 22:33N 50°48' W 001°06'0 0.0
2017-Jan-15 21:33N 50°48' W 001°06'0 0.0
2017-Jan-15 20:34N 50°48' W 001°06'0 0.4
2017-Jan-15 19:33N 50°49' W 001°06'1 1.1
2017-Jan-15 18:33N 50°48' W 001°07'0 0.0
2017-Jan-15 17:33N 50°48' W 001°07'1 0.8
2017-Jan-15 16:33N 50°48' W 001°06'1182025696.2
2017-Jan-15 16:06S 37°31' E 176°11'611.8
2017-Jan-15 15:34S 37°37' E 176°10'11824247472.6
2017-Jan-15 15:31N 50°48' W 001°07'1182612198.3
2017-Jan-15 14:32S 37°40' E 176°11'11825886887.1
2017-Jan-15 14:32N 50°48' W 001°06'0 0.5
2017-Jan-15 13:33N 50°49' W 001°06'11825905730.2
2017-Jan-15 13:32S 37°40' E 176°11'0 0.0
2017-Jan-15 12:32S 37°40' E 176°11'118253274660.3
2017-Jan-15 12:32N 50°48' W 001°06'1182511874.6
2017-Jan-15 11:32S 37°40' E 176°11'118252504151.9
2017-Jan-15 11:32N 50°48' W 001°06'0 0.5
2017-Jan-15 10:33N 50°48' W 001°07'11826626064.0
2017-Jan-15 10:32S 37°40' E 176°11'0 0.0
2017-Jan-15 09:32S 37°40' E 176°11'11825430005.9
2017-Jan-15 09:31N 50°48' W 001°06'1182512156.1
2017-Jan-15 08:32S 37°40' E 176°11'11825425705.8
2017-Jan-15 08:31N 50°48' W 001°06'1182512170.0
2017-Jan-15 07:32S 37°40' E 176°11'11825417358.6
2017-Jan-15 07:31N 50°48' W 001°06'0 0.0
2017-Jan-15 06:30N 50°48' W 001°06'118251702823.4
2017-Jan-15 06:29S 37°40' E 176°11'1182612485.0
2017-Jan-15 05:33N 50°48' W 001°07'118262365216.7
2017-Jan-15 05:32S 37°40' E 176°11'1182611892.2
2017-Jan-15 04:33N 50°48' W 001°07'118262240730.9
2017-Jan-15 04:32S 37°40' E 176°11'1182512012.1
2017-Jan-15 03:33N 50°49' W 001°06'11825733983.1
2017-Jan-15 03:32S 37°40' E 176°11'0 0.0
2017-Jan-15 02:32S 37°40' E 176°11'11825448111.6
2017-Jan-15 02:31N 50°48' W 001°06'1182512152.6
2017-Jan-15 01:32S 37°40' E 176°11'11825413306.7
2017-Jan-15 01:31N 50°48' W 001°06'1182512173.5
2017-Jan-15 00:32S 37°40' E 176°11'11825434395.7
2017-Jan-15 00:31N 50°48' W 001°06'1182512152.6
2017-Jan-14 23:32S 37°40' E 176°11'11825421491.0
2017-Jan-14 23:31N 50°48' W 001°06'1182512170.0
2017-Jan-14 22:32S 37°40' E 176°11'11825417358.7
2017-Jan-14 22:31N 50°48' W 001°06'1182412409.7
2017-Jan-14 21:33S 37°35' E 176°12'11824248920.0
2017-Jan-14 21:31N 50°48' W 001°06'1183012409.4
2017-Jan-14 20:33S 37°30' E 176°23'11830255023.9
2017-Jan-14 20:31N 50°48' W 001°06'0 0.2
2017-Jan-14 19:33N 50°48' W 001°07'1 0.7
2017-Jan-14 18:32N 50°48' W 001°07'0 0.1
2017-Jan-14 17:34N 50°48' W 001°07'1 0.7
2017-Jan-14 16:33N 50°48' W 001°06'3 2.8
2017-Jan-14 15:33N 50°46' W 001°05'3 3.0
2017-Jan-14 14:31N 50°49' W 001°07'0 0.5
2017-Jan-14 13:33N 50°49' W 001°06'0 0.4
2017-Jan-14 12:33N 50°49' W 001°06'1 0.6
2017-Jan-14 11:32N 50°48' W 001°06'0 0.0
2017-Jan-14 10:32N 50°48' W 001°06'0 0.0
2017-Jan-14 09:32N 50°48' W 001°06'0 0.0
2017-Jan-14 08:32N 50°48' W 001°06'0 0.0
2017-Jan-14 07:32N 50°48' W 001°06'0 0.0
2017-Jan-14 06:33N 50°48' W 001°06'1 0.8
2017-Jan-14 05:33N 50°48' W 001°07'0 0.0
2017-Jan-14 04:33N 50°48' W 001°07'1 1.4
2017-Jan-14 03:33N 50°49' W 001°06'1 0.2
2017-Jan-13 23:33N 50°48' W 001°06'0 0.0
2017-Jan-13 22:33N 50°48' W 001°06'0 0.0
2017-Jan-13 21:33N 50°48' W 001°06'0 0.0
2017-Jan-13 20:30N 50°48' W 001°06'0 0.0
2017-Jan-13 19:33N 50°48' W 001°06'0 0.2
2017-Jan-13 18:34N 50°49' W 001°06'1 0.8
2017-Jan-13 17:33N 50°48' W 001°07'1 0.8
2017-Jan-13 16:32N 50°48' W 001°06'0 0.0
2017-Jan-13 15:32N 50°48' W 001°06'0 0.0
2017-Jan-13 14:32N 50°48' W 001°06'0 0.0
2017-Jan-13 13:33N 50°48' W 001°06'0 0.5
2017-Jan-13 12:33N 50°49' W 001°06'0 0.5
2017-Jan-13 11:33N 50°48' W 001°06'0 0.0
2017-Jan-13 10:33N 50°48' W 001°06'0 0.0
2017-Jan-13 09:33N 50°48' W 001°06'0 0.0
2017-Jan-13 08:32N 50°48' W 001°06'0 0.0
2017-Jan-13 07:33N 50°48' W 001°06'1 0.5
2017-Jan-13 06:33N 50°48' W 001°07'0 0.3
2017-Jan-13 05:31N 50°48' W 001°07'0 0.0
2017-Jan-13 04:31N 50°48' W 001°07'1 1.2
2017-Jan-13 03:33N 50°49' W 001°06'1 1.1
2017-Jan-13 02:32N 50°48' W 001°07'0 0.0
2017-Jan-13 01:32N 50°48' W 001°07'0 0.0
2017-Jan-13 00:32N 50°48' W 001°07'0 0.0
2017-Jan-12 23:32N 50°48' W 001°07'0 0.0
2017-Jan-12 22:32N 50°48' W 001°07'0 0.0
2017-Jan-12 21:32N 50°48' W 001°07'0 0.0
2017-Jan-12 20:32N 50°48' W 001°07'0 0.1
2017-Jan-12 19:33N 50°48' W 001°07'0 0.1
2017-Jan-12 18:33N 50°48' W 001°07'0 0.0
2017-Jan-12 17:33N 50°48' W 001°07'1 0.6
2017-Jan-12 16:33N 50°48' W 001°07'1 0.8
2017-Jan-12 15:31N 50°49' W 001°06'0 0.0
2017-Jan-12 14:31N 50°49' W 001°06'1 1.0
2017-Jan-12 13:33N 50°48' W 001°07'  

Dump ship's entire track history